createdAt,value
2022-08-31T00:03:00.268Z,95627.00
2022-08-31T00:05:46.590Z,95622.22
2022-08-31T00:08:33.374Z,95630.84
2022-08-31T00:11:27.942Z,95628.41
2022-08-31T00:14:13.981Z,95625.19
2022-08-31T00:16:59.633Z,95626.03
2022-08-31T00:19:45.421Z,95615.00
2022-08-31T00:22:31.425Z,95616.94
2022-08-31T00:25:17.578Z,95615.41
2022-08-31T00:28:04.409Z,95613.47
2022-08-31T00:30:50.222Z,95609.56
2022-08-31T00:33:36.845Z,95607.97
2022-08-31T00:36:24.259Z,95610.72
2022-08-31T00:39:10.769Z,95601.63
2022-08-31T00:41:57.011Z,95605.22
2022-08-31T00:44:42.998Z,95601.31
2022-08-31T00:47:28.745Z,95592.28
2022-08-31T00:50:16.820Z,95587.56
2022-08-31T00:53:02.594Z,95598.94
2022-08-31T00:55:48.859Z,95596.13
2022-08-31T00:58:35.106Z,95602.03
2022-08-31T01:01:22.061Z,95604.06
2022-08-31T01:04:08.555Z,95606.81
2022-08-31T01:06:54.453Z,95608.00
2022-08-31T01:09:45.104Z,95615.06
2022-08-31T01:12:44.897Z,95612.31
2022-08-31T01:15:32.111Z,95608.00
2022-08-31T01:18:18.389Z,95613.13
2022-08-31T01:21:21.202Z,95611.13
2022-08-31T01:24:08.365Z,95611.91
2022-08-31T01:26:55.736Z,95616.28
2022-08-31T01:29:42.516Z,95611.22
2022-08-31T01:32:28.808Z,95618.31
2022-08-31T01:35:14.553Z,95618.31
2022-08-31T01:38:00.741Z,95618.31
2022-08-31T01:40:53.135Z,95623.38
2022-08-31T01:43:39.018Z,95620.63
2022-08-31T01:46:25.828Z,95615.13
2022-08-31T01:49:15.403Z,95619.84
2022-08-31T01:52:01.387Z,95624.53
2022-08-31T01:54:47.682Z,95624.53
2022-08-31T01:57:34.758Z,95616.28
2022-08-31T02:00:47.902Z,95617.81
2022-08-31T02:03:34.385Z,95616.66
2022-08-31T02:06:21.222Z,95615.06
2022-08-31T02:09:07.801Z,95616.66
2022-08-31T02:11:55.680Z,95618.63
2022-08-31T02:14:41.769Z,95616.63
2022-08-31T02:17:28.369Z,95607.13
2022-08-31T02:20:16.974Z,95619.69
2022-08-31T02:23:03.578Z,95623.19
2022-08-31T02:25:49.620Z,95619.97
2022-08-31T02:28:36.108Z,95625.84
2022-08-31T02:31:22.735Z,95617.16
2022-08-31T02:34:17.292Z,95619.50
2022-08-31T02:37:03.574Z,95619.06
2022-08-31T02:39:51.022Z,95621.00
2022-08-31T02:42:53.580Z,95611.25
2022-08-31T02:45:45.118Z,95609.66
2022-08-31T02:48:43.786Z,95604.16
2022-08-31T02:51:34.023Z,95603.78
2022-08-31T02:54:21.937Z,95610.09
2022-08-31T02:57:07.866Z,95610.81
2022-08-31T02:59:53.915Z,95602.97
2022-08-31T03:02:41.295Z,95612.00
2022-08-31T03:05:30.873Z,95605.28
2022-08-31T03:08:17.527Z,95606.81
2022-08-31T03:11:04.220Z,95597.31
2022-08-31T03:13:50.025Z,95600.41
2022-08-31T03:16:35.838Z,95599.63
2022-08-31T03:19:22.641Z,95599.94
2022-08-31T03:22:08.652Z,95599.13
2022-08-31T03:24:54.454Z,95597.91
2022-08-31T03:27:41.499Z,95592.38
2022-08-31T03:30:29.953Z,95584.50
2022-08-31T03:33:25.270Z,95596.28
2022-08-31T03:36:11.148Z,95588.41
2022-08-31T03:38:56.985Z,95588.41
2022-08-31T03:41:42.824Z,95594.63
2022-08-31T03:44:29.237Z,95593.06
2022-08-31T03:47:16.844Z,95595.41
2022-08-31T03:50:05.649Z,95592.22
2022-08-31T03:53:05.593Z,95590.63
2022-08-31T03:55:51.361Z,95592.97
2022-08-31T03:58:38.430Z,95596.94
2022-08-31T04:01:25.281Z,95597.75
2022-08-31T04:04:37.227Z,95593.84
2022-08-31T04:07:43.248Z,95593.84
2022-08-31T04:10:51.658Z,95597.75
2022-08-31T04:13:38.746Z,95592.31
2022-08-31T04:16:33.202Z,95594.75
2022-08-31T04:19:38.810Z,95587.69
2022-08-31T04:22:47.202Z,95602.25
2022-08-31T04:25:47.855Z,95598.34
2022-08-31T04:28:33.590Z,95590.88
2022-08-31T04:31:20.756Z,95594.06
2022-08-31T04:34:07.534Z,95600.34
2022-08-31T04:36:53.467Z,95600.34
2022-08-31T04:39:50.519Z,95601.94
2022-08-31T04:42:39.035Z,95596.44
2022-08-31T04:45:24.865Z,95604.25
2022-08-31T04:48:11.653Z,95604.31
2022-08-31T04:51:21.735Z,95603.41
2022-08-31T04:54:10.782Z,95599.50
2022-08-31T04:56:59.145Z,95612.06
2022-08-31T04:59:54.310Z,95607.34
2022-08-31T05:03:13.627Z,95607.28
2022-08-31T05:06:00.966Z,95605.63
2022-08-31T05:08:46.895Z,95614.00
2022-08-31T05:11:34.932Z,95618.31
2022-08-31T05:14:22.323Z,95615.94
2022-08-31T05:17:16.721Z,95609.59
2022-08-31T05:20:05.249Z,95610.44
2022-08-31T05:22:51.071Z,95606.06
2022-08-31T05:25:40.384Z,95615.16
2022-08-31T05:28:26.580Z,95611.25
2022-08-31T05:31:20.143Z,95615.56
2022-08-31T05:34:19.831Z,95608.06
2022-08-31T05:37:24.261Z,95616.75
2022-08-31T05:40:13.171Z,95611.63
2022-08-31T05:43:08.516Z,95607.28
2022-08-31T05:45:55.082Z,95616.41
2022-08-31T05:48:41.929Z,95601.84
2022-08-31T05:51:41.286Z,95615.69
2022-08-31T05:54:27.714Z,95621.59
2022-08-31T05:57:13.943Z,95622.03
2022-08-31T06:00:00.343Z,95627.94
2022-08-31T06:02:47.397Z,95622.44
2022-08-31T06:05:35.904Z,95618.53
2022-08-31T06:08:27.193Z,95618.59
2022-08-31T06:11:19.420Z,95615.50
2022-08-31T06:14:06.512Z,95613.16
2022-08-31T06:16:55.528Z,95609.25
2022-08-31T06:19:42.042Z,95619.50
2022-08-31T06:22:29.288Z,95617.22
2022-08-31T06:25:19.432Z,95615.72
2022-08-31T06:28:07.363Z,95615.06
2022-08-31T06:30:55.606Z,95605.66
2022-08-31T06:33:43.499Z,95610.06
2022-08-31T06:36:35.283Z,95606.53
2022-08-31T06:39:39.978Z,95620.81
2022-08-31T06:42:45.428Z,95613.75
2022-08-31T06:45:48.351Z,95617.72
2022-08-31T06:48:57.533Z,95622.47
2022-08-31T06:51:43.798Z,95626.88
2022-08-31T06:54:31.076Z,95625.72
2022-08-31T06:57:35.809Z,95619.50
2022-08-31T07:00:58.742Z,95625.84
2022-08-31T07:04:14.313Z,95631.03
2022-08-31T07:07:00.403Z,95630.28
2022-08-31T07:09:47.451Z,95622.84
2022-08-31T07:12:33.847Z,95620.50
2022-08-31T07:15:19.582Z,95619.03
2022-08-31T07:18:09.787Z,95627.75
2022-08-31T07:20:56.308Z,95617.56
2022-08-31T07:23:45.321Z,95623.16
2022-08-31T07:26:38.666Z,95616.91
2022-08-31T07:29:30.528Z,95612.22
2022-08-31T07:32:17.592Z,95606.78
2022-08-31T07:35:06.310Z,95609.97
2022-08-31T07:38:35.426Z,95613.16
2022-08-31T07:41:42.600Z,95594.28
2022-08-31T07:44:28.582Z,95597.97
2022-08-31T07:47:18.587Z,95610.22
2022-08-31T07:50:06.638Z,95598.84
2022-08-31T07:52:58.457Z,95597.31
2022-08-31T07:56:13.648Z,95603.63
2022-08-31T07:59:07.547Z,95596.94
2022-08-31T08:02:02.012Z,95594.25
2022-08-31T08:04:53.390Z,95592.72
2022-08-31T08:08:08.369Z,95596.31
2022-08-31T08:11:17.038Z,95589.22
2022-08-31T08:14:38.474Z,95584.09
2022-08-31T08:17:41.194Z,95587.25
2022-08-31T08:20:37.262Z,95579.81
2022-08-31T08:23:28.790Z,95582.97
2022-08-31T08:26:50.884Z,95580.63
2022-08-31T08:29:56.694Z,95588.91
2022-08-31T08:32:48.272Z,95584.56
2022-08-31T08:35:34.967Z,95585.28
2022-08-31T08:38:21.447Z,95573.44
2022-08-31T08:41:15.235Z,95570.66
2022-08-31T08:44:04.234Z,95563.09
2022-08-31T08:46:54.929Z,95561.94
2022-08-31T08:49:53.979Z,95559.19
2022-08-31T08:52:44.396Z,95563.16
2022-08-31T08:55:41.822Z,95565.97
2022-08-31T08:58:28.270Z,95558.50
2022-08-31T09:01:25.298Z,95541.97
2022-08-31T09:04:31.351Z,95552.63
2022-08-31T09:08:01.626Z,95549.88
2022-08-31T09:11:06.433Z,95546.31
2022-08-31T09:14:15.460Z,95546.00
2022-08-31T09:17:25.148Z,95536.19
2022-08-31T09:20:13.278Z,95534.31
2022-08-31T09:23:00.926Z,95532.75
2022-08-31T09:25:52.487Z,95534.34
2022-08-31T09:29:00.611Z,95530.47
2022-08-31T09:31:47.105Z,95530.47
2022-08-31T09:34:37.555Z,95532.84
2022-08-31T09:37:26.673Z,95526.59
2022-08-31T09:40:19.659Z,95518.69
2022-08-31T09:43:23.953Z,95519.50
2022-08-31T09:46:23.605Z,95506.88
2022-08-31T09:49:20.271Z,95503.72
2022-08-31T09:52:47.885Z,95502.97
2022-08-31T09:55:34.018Z,95497.47
2022-08-31T09:58:30.916Z,95496.69
2022-08-31T10:01:45.060Z,95499.06
2022-08-31T10:04:31.897Z,95503.00
2022-08-31T10:07:57.510Z,95493.53
2022-08-31T10:10:45.062Z,95485.66
2022-08-31T10:13:38.808Z,95485.25
2022-08-31T10:16:35.481Z,95484.84
2022-08-31T10:19:30.572Z,95478.94
2022-08-31T10:22:25.639Z,95469.06
2022-08-31T10:25:21.644Z,95462.75
2022-08-31T10:28:15.589Z,95458.78
2022-08-31T10:31:14.509Z,95456.03
2022-08-31T10:34:30.615Z,95452.47
2022-08-31T10:37:49.245Z,95447.31
2022-08-31T10:40:50.693Z,95445.28
2022-08-31T10:44:01.641Z,95441.31
2022-08-31T10:46:47.675Z,95442.88
2022-08-31T10:49:35.469Z,95424.69
2022-08-31T10:52:21.529Z,95427.03
2022-08-31T10:55:28.885Z,95415.13
2022-08-31T10:58:19.623Z,95419.47
2022-08-31T12:14:03.287Z,95339.69
2022-08-31T12:17:13.258Z,95341.13
2022-08-31T12:20:34.849Z,95330.66
2022-08-31T12:23:38.915Z,95324.31
2022-08-31T12:26:53.550Z,95336.03
2022-08-31T12:29:42.086Z,95338.38
2022-08-31T12:32:42.064Z,95324.84
2022-08-31T12:35:30.654Z,95318.13
2022-08-31T12:38:19.710Z,95315.34
2022-08-31T12:41:06.219Z,95320.78
2022-08-31T12:43:52.138Z,95312.09
2022-08-31T12:46:54.119Z,95304.81
2022-08-31T12:49:49.351Z,95298.41
2022-08-31T12:53:17.532Z,95296.34
2022-08-31T12:56:34.699Z,95289.47
2022-08-31T12:59:51.250Z,95290.97
2022-08-31T13:02:42.015Z,95290.03
2022-08-31T13:05:30.984Z,95290.81
2022-08-31T13:08:25.189Z,95285.97
2022-08-31T13:11:35.119Z,95283.53
2022-08-31T13:14:39.105Z,95276.78
2022-08-31T13:17:26.734Z,95267.56
2022-08-31T13:20:20.349Z,95257.16
2022-08-31T13:23:41.105Z,95265.69
2022-08-31T13:26:26.961Z,95270.41
2022-08-31T13:29:17.413Z,95266.75
2022-08-31T13:32:03.498Z,95264.66
2022-08-31T13:34:49.516Z,95261.44
2022-08-31T13:37:42.075Z,95273.19
2022-08-31T13:40:37.521Z,95275.47
2022-08-31T13:43:26.837Z,95257.91
2022-08-31T13:46:12.915Z,95264.16
2022-08-31T13:49:02.019Z,95266.44
2022-08-31T13:51:48.100Z,95265.56
2022-08-31T13:54:36.270Z,95264.69
2022-08-31T13:57:26.099Z,95265.22
2022-08-31T14:00:35.254Z,95260.69
2022-08-31T14:03:42.102Z,95251.09
2022-08-31T14:06:38.109Z,95255.75
2022-08-31T14:09:23.995Z,95260.63
2022-08-31T14:12:10.043Z,95253.88
2022-08-31T14:14:57.703Z,95255.03
2022-08-31T14:21:21.062Z,95244.16
2022-08-31T14:24:12.376Z,95247.47
2022-08-31T14:27:00.351Z,95250.03
2022-08-31T14:29:46.198Z,95246.97
2022-08-31T14:32:33.399Z,95243.34
2022-08-31T14:35:32.132Z,95254.88
2022-08-31T14:38:18.315Z,95243.28
2022-08-31T14:41:04.657Z,95248.25
2022-08-31T14:43:50.611Z,95265.47
2022-08-31T14:46:39.075Z,95251.16
2022-08-31T14:49:25.182Z,95261.72
2022-08-31T14:52:13.109Z,95261.44
2022-08-31T14:55:01.137Z,95259.09
2022-08-31T14:57:55.612Z,95255.72
2022-08-31T15:00:53.260Z,95271.38
2022-08-31T15:03:45.034Z,95269.41
2022-08-31T15:06:34.448Z,95266.84
2022-08-31T15:09:21.738Z,95266.50
2022-08-31T15:12:12.208Z,95268.28
2022-08-31T15:15:01.581Z,95266.25
2022-08-31T15:17:52.109Z,95270.69
2022-08-31T15:20:39.984Z,95258.84
2022-08-31T15:23:26.264Z,95251.06
2022-08-31T15:26:15.100Z,95246.22
2022-08-31T15:29:02.726Z,95246.09
2022-08-31T15:31:52.856Z,95252.16
2022-08-31T15:34:39.244Z,95238.41
2022-08-31T15:37:31.622Z,95240.81
2022-08-31T15:40:18.094Z,95245.63
2022-08-31T15:43:09.321Z,95260.19
2022-08-31T15:45:55.428Z,95255.34
2022-08-31T15:48:45.866Z,95253.63
2022-08-31T15:51:35.328Z,95266.13
2022-08-31T15:54:26.252Z,95256.44
2022-08-31T15:57:13.151Z,95261.56
2022-08-31T15:59:58.776Z,95258.56
2022-08-31T16:02:44.903Z,95249.63
2022-08-31T16:05:35.836Z,95258.91
2022-08-31T16:08:28.019Z,95255.16
2022-08-31T17:15:13.991Z,95316.53
2022-08-31T17:17:59.997Z,95325.56
2022-08-31T17:20:45.794Z,95324.34
2022-08-31T17:23:32.010Z,95309.81
2022-08-31T17:26:21.214Z,95326.34
2022-08-31T17:29:08.057Z,95327.91
2022-08-31T17:31:55.000Z,95335.03
2022-08-31T17:34:41.894Z,95339.78
2022-08-31T17:37:32.770Z,95347.72
2022-08-31T17:40:19.426Z,95348.53
2022-08-31T17:43:05.898Z,95355.25
2022-08-31T17:45:51.864Z,95356.50
2022-08-31T17:48:42.242Z,95356.94
2022-08-31T17:51:31.764Z,95361.69
2022-08-31T17:54:23.160Z,95370.44
2022-08-31T17:57:12.442Z,95368.09
2022-08-31T17:59:58.361Z,95378.75
2022-08-31T18:02:46.144Z,95379.19
2022-08-31T18:05:32.522Z,95371.72
2022-08-31T18:08:20.715Z,95385.97
2022-08-31T18:11:07.493Z,95389.53
2022-08-31T18:13:55.312Z,95404.16
2022-08-31T18:16:42.424Z,95394.28
2022-08-31T18:19:29.566Z,95397.47
2022-08-31T18:22:15.715Z,95399.03
2022-08-31T18:25:01.752Z,95397.88
2022-08-31T18:27:49.042Z,95411.28
2022-08-31T18:30:41.451Z,95408.13
2022-08-31T18:33:30.854Z,95405.38
2022-08-31T18:36:19.470Z,95408.13
2022-08-31T18:39:11.789Z,95407.75
2022-08-31T18:42:16.291Z,95407.75
2022-08-31T18:45:39.079Z,95430.25
2022-08-31T18:48:27.457Z,95436.56
2022-08-31T18:51:17.740Z,95431.88
2022-08-31T18:54:06.975Z,95435.44
2022-08-31T18:56:54.313Z,95425.59
2022-08-31T18:59:40.146Z,95427.16
2022-08-31T19:02:26.747Z,95416.91
2022-08-31T19:05:14.125Z,95412.19
2022-08-31T19:08:00.623Z,95413.00
2022-08-31T19:10:49.138Z,95417.72
2022-08-31T19:13:35.621Z,95417.34
2022-08-31T19:16:27.955Z,95423.25
2022-08-31T19:19:14.375Z,95428.00
2022-08-31T19:22:00.749Z,95425.66
2022-08-31T19:24:47.106Z,95429.56
2022-08-31T19:27:34.895Z,95422.47
2022-08-31T19:30:25.816Z,95437.06
2022-08-31T19:33:15.158Z,95439.84
2022-08-31T19:36:04.703Z,95433.53
2022-08-31T19:38:53.645Z,95435.13
2022-08-31T19:41:49.259Z,95435.91
2022-08-31T19:44:55.000Z,95430.41
2022-08-31T19:47:46.958Z,95422.91
2022-08-31T19:50:41.518Z,95420.94
2022-08-31T19:53:28.835Z,95432.38
2022-08-31T19:56:17.962Z,95430.78
2022-08-31T19:59:03.939Z,95420.16
2022-08-31T20:01:55.737Z,95425.69
2022-08-31T20:04:42.474Z,95424.91
2022-08-31T20:07:28.872Z,95431.22
2022-08-31T20:10:15.475Z,95432.81
2022-08-31T20:13:04.549Z,95422.53
2022-08-31T20:15:52.886Z,95432.00
2022-08-31T20:18:40.299Z,95435.94
2022-08-31T20:21:32.550Z,95425.72
2022-08-31T20:24:18.624Z,95426.47
2022-08-31T20:27:09.515Z,95427.25
2022-08-31T20:29:55.968Z,95433.16
2022-08-31T20:32:41.815Z,95426.88
2022-08-31T20:35:43.172Z,95435.13
2022-08-31T20:38:30.340Z,95425.28
2022-08-31T20:41:16.576Z,95416.22
2022-08-31T20:44:10.304Z,95415.41
2022-08-31T20:47:17.290Z,95404.41
2022-08-31T20:50:07.305Z,95394.94
2022-08-31T20:52:53.040Z,95395.69
2022-08-31T20:55:39.123Z,95392.94
2022-08-31T20:58:25.054Z,95391.78
2022-08-31T21:01:12.246Z,95389.81
2022-08-31T21:04:31.774Z,95380.34
2022-08-31T21:07:19.210Z,95376.38
2022-08-31T21:10:06.656Z,95379.94
2022-08-31T21:12:55.033Z,95381.53
2022-08-31T21:15:48.636Z,95378.34
2022-08-31T21:18:35.126Z,95390.56
2022-08-31T21:21:20.969Z,95379.13
2022-08-31T21:24:09.481Z,95381.50
2022-08-31T21:26:59.282Z,95385.44
2022-08-31T21:30:17.159Z,95383.06
2022-08-31T21:33:03.417Z,95375.19
2022-08-31T21:35:49.445Z,95366.50
2022-08-31T21:38:36.213Z,95372.03
2022-08-31T21:45:48.371Z,95366.91
2022-08-31T21:49:00.169Z,95362.56
2022-08-31T21:55:18.173Z,95354.63
2022-08-31T21:58:04.086Z,95354.63
2022-08-31T22:01:02.901Z,95348.34
2022-08-31T22:03:53.758Z,95348.34
2022-08-31T22:07:02.877Z,95353.47
2022-08-31T22:09:48.770Z,95353.03
2022-08-31T22:12:34.516Z,95342.81
2022-08-31T22:15:23.920Z,95341.63
2022-08-31T22:18:58.230Z,95339.63
2022-08-31T22:21:24.182Z,95336.47
2022-08-31T22:24:26.861Z,95343.56
2022-08-31T22:27:15.941Z,95345.16
2022-08-31T22:30:01.957Z,95330.97
2022-08-31T22:32:48.206Z,95338.88
2022-08-31T22:35:38.912Z,95344.38
2022-08-31T22:38:24.858Z,95349.88
2022-08-31T22:41:12.245Z,95348.31
2022-08-31T22:43:59.057Z,95357.75
2022-08-31T22:46:44.988Z,95350.66
2022-08-31T22:49:31.101Z,95353.78
2022-08-31T22:52:17.547Z,95350.66
2022-08-31T22:55:04.607Z,95347.47
2022-08-31T22:57:50.503Z,95339.59
2022-08-31T23:00:36.737Z,95340.75
2022-08-31T23:03:23.297Z,95345.50
2022-08-31T23:06:12.147Z,95348.63
2022-08-31T23:08:59.134Z,95352.19
2022-08-31T23:11:44.882Z,95345.47
2022-08-31T23:14:32.687Z,95340.72
2022-08-31T23:17:18.736Z,95345.81
2022-08-31T23:20:07.047Z,95342.66
2022-08-31T23:22:55.073Z,95343.44
2022-08-31T23:25:41.951Z,95333.97
2022-08-31T23:28:28.409Z,95326.88
2022-08-31T23:31:14.397Z,95331.22
2022-08-31T23:34:00.537Z,95331.63
2022-08-31T23:36:48.850Z,95324.56
2022-08-31T23:39:36.547Z,95313.09
2022-08-31T23:42:23.592Z,95315.44
2022-08-31T23:45:10.270Z,95322.91
2022-08-31T23:47:57.862Z,95317.38
2022-08-31T23:50:44.860Z,95318.19
2022-08-31T23:53:30.699Z,95306.34
2022-08-31T23:56:20.063Z,95321.28
2022-08-31T23:59:10.366Z,95307.09
